FW8254 Weather Reports


time (UTC)temp
C
wind
direction
speed
KPH
gust
KPH
rain 1hr
cm
rain 24hr
cm
rain mn
cm
humidity
%
barometer
mb
20240723063605 25 16 1.6 3.2 0.00 0.00 0.00 86 1011.3
20240723063104 25 64 0.0 1.6 0.00 0.00 0.00 86 1011.2
20240723062600 25 329 3.2 3.2 0.00 0.00 0.00 86 1011.4
20240723062058 25 42 1.6 1.6 0.00 0.00 0.00 86 1011.2
20240723061555 24 57 0.0 1.6 0.00 0.00 0.00 86 1011.6
20240723061054 24 59 0.0 0.0 0.00 0.00 0.00 86 1011.4
20240723060553 24 60 0.0 0.0 0.00 0.00 0.00 86 1011.6
20240723060053 24 61 0.0 1.6 0.00 0.00 0.00 86 1011.5
20240723055548 24 39 0.0 1.6 0.00 0.00 0.00 86 1011.5
20240723055047 25 40 0.0 1.6 0.00 0.00 0.00 86 1011.5
20240723054543 25 39 0.0 0.0 0.00 0.00 0.00 85 1011.4
20240723054041 25 40 0.0 0.0 0.00 0.00 0.00 85 1011.4
20240723053537 25 40 0.0 1.6 0.00 0.00 0.00 85 1011.6
20240723053035 25 41 0.0 0.0 0.00 0.00 0.00 86 1011.3
20240723052534 25 41 0.0 0.0 0.00 0.00 0.00 86 1011.5
20240723052031 25 41 0.0 0.0 0.00 0.00 0.00 86 1011.4
20240723051509 25 41 0.0 0.0 0.00 0.00 0.00 86 1011.4
20240723051006 25 41 0.0 1.6 0.00 0.00 0.00 86 1011.2
20240723050505 25 58 1.6 1.6 0.00 0.00 0.00 85 1011.3
20240723050004 25 27 0.0 0.0 0.00 0.00 0.00 84 1011.6
20240723045501 25 27 0.0 0.0 0.00 0.00 0.00 84 1011.7
20240723045001 25 27 0.0 0.0 0.00 0.00 0.00 85 1011.5
20240723044500 25 27 1.6 1.6 0.00 0.00 0.00 84 1011.4
20240723043958 25 26 0.0 0.0 0.00 0.00 0.00 84 1011.3
20240723043456 25 26 0.0 0.0 0.00 0.00 0.00 85 1011.5
20240723042955 25 26 0.0 0.0 0.00 0.00 0.00 84 1011.5
20240723042453 25 26 1.6 1.6 0.00 0.00 0.00 83 1011.3
20240723041951 25 19 1.6 3.2 0.00 0.00 0.00 83 1011.3
20240723041449 25 328 1.6 3.2 0.00 0.00 0.00 84 1011.2
20240723040946 25 25 0.0 0.0 0.00 0.00 0.00 82 1011.4
20240723040444 25 25 0.0 0.0 0.00 0.00 0.00 82 1011.6
20240723035940 25 25 0.0 0.0 0.00 1.07 1.07 81 1011.4
20240723035439 25 25 0.0 0.0 0.00 1.07 1.07 81 1011.3
20240723034936 25 25 0.0 0.0 0.00 1.07 1.07 81 1011.2
20240723034433 25 25 0.0 0.0 0.00 1.07 1.07 80 1011.3
20240723033932 25 25 0.0 0.0 0.00 1.07 1.07 80 1011.3
20240723033431 25 25 0.0 0.0 0.00 1.07 1.07 80 1011.4
20240723032928 25 25 0.0 0.0 0.00 1.07 1.07 81 1011.6
20240723032426 25 25 0.0 0.0 0.00 1.07 1.07 80 1011.6
20240723031926 25 25 0.0 0.0 0.00 1.07 1.07 79 1011.7
20240723031425 25 25 0.0 0.0 0.00 1.07 1.07 79 1011.5
20240723030924 25 25 0.0 0.0 0.00 1.07 1.07 79 1011.5
20240723030423 25 25 0.0 0.0 0.00 1.07 1.07 79 1011.6
20240723025922 26 25 0.0 0.0 0.00 1.07 1.07 79 1011.6
20240723025420 26 25 0.0 0.0 0.00 1.07 1.07 77 1011.6
20240723024919 26 25 0.0 0.0 0.00 1.07 1.07 76 1011.4
20240723024417 26 25 0.0 0.0 0.00 1.07 1.07 76 1011.6
20240723023915 26 25 0.0 1.6 0.00 1.07 1.07 76 1011.5
20240723023415 26 24 0.0 3.2 0.00 1.07 1.07 76 1011.3
20240723022913 26 23 0.0 0.0 0.00 1.07 1.07 77 1011.1
20240723022412 26 23 0.0 0.0 0.00 1.07 1.07 77 1011.2
20240723021910 27 23 0.0 0.0 0.00 1.07 1.07 76 1011.2
20240723021409 27 19 1.6 3.2 0.00 1.07 1.07 77 1011.0
20240723020906 27 316 4.8 8.0 0.00 1.07 1.07 77 1011.1
20240723020406 27 9 1.6 3.2 0.00 1.07 1.07 78 1011.0
20240723015907 27 5 1.6 3.2 0.00 1.07 1.07 79 1010.9
20240723015405 27 11 1.6 3.2 0.00 1.07 1.07 79 1010.7
20240723014903 27 13 1.6 3.2 0.00 1.07 1.07 79 1010.9
20240723014403 27 14 1.6 3.2 0.00 1.07 1.07 79 1010.5
20240723013903 27 319 4.8 4.8 0.00 1.07 1.07 80 1010.5
20240723013402 27 317 4.8 4.8 0.00 1.07 1.07 79 1010.6
20240723012901 27 18 3.2 8.0 0.00 1.07 1.07 80 1010.5
20240723012400 27 352 3.2 8.0 0.00 1.07 1.07 79 1010.2
20240723011857 27 312 3.2 3.2 0.00 1.07 1.07 78 1010.4
20240723011356 27 13 1.6 1.6 0.00 1.07 1.07 78 1010.4
20240723010855 27 25 1.6 1.6 0.00 1.07 1.07 77 1010.2
20240723010354 28 25 1.6 1.6 0.00 1.07 1.07 76 1010.3
20240723005851 28 355 3.2 4.8 0.00 1.07 1.07 76 1010.2
20240723005350 28 317 4.8 4.8 0.00 1.07 1.07 76 1010.2
20240723004846 28 343 3.2 4.8 0.00 1.07 1.07 76 1010.1
20240723004343 28 294 6.4 8.0 0.00 1.07 1.07 75 1010.0
20240723003841 28 304 6.4 8.0 0.00 1.07 1.07 76 1009.9
20240723003338 28 282 6.4 9.7 0.00 1.07 1.07 76 1009.9
20240723002833 28 296 6.4 9.7 0.00 1.07 1.07 75 1009.7
20240723002331 28 300 6.4 8.0 0.00 1.07 1.07 76 1009.8
20240723001830 28 295 6.4 8.0 0.00 1.07 1.07 74 1009.6
20240723001329 29 297 8.0 9.7 0.00 1.07 1.07 74 1009.6
20240723000829 29 292 8.0 9.7 0.00 1.07 1.07 74 1009.5
20240723000328 29 282 8.0 9.7 0.00 1.07 1.07 73 1009.3
20240722235825 29 302 4.8 8.0 0.00 1.07 1.07 74 1009.1
20240722235323 29 308 4.8 8.0 0.00 1.07 1.07 73 1009.2
20240722234824 30 275 8.0 9.7 0.00 1.07 1.07 70 1009.3
20240722234323 30 273 8.0 9.7 0.00 1.07 1.07 70 1009.4
20240722233822 30 284 8.0 9.7 0.00 1.07 1.07 71 1009.2
20240722233320 30 287 6.4 8.0 0.00 1.07 1.07 70 1008.9
20240722232819 30 311 4.8 4.8 0.00 1.07 1.07 72 1009.3
20240722232318 30 305 4.8 9.7 0.00 1.07 1.07 71 1009.1
20240722231816 30 271 8.0 11.3 0.00 1.07 1.07 71 1009.2
20240722231315 29 281 11.3 11.3 0.00 1.07 1.07 70 1009.1
20240722230813 29 302 6.4 11.3 0.00 1.07 1.07 71 1008.8
20240722230311 29 299 8.0 9.7 0.00 1.07 1.07 70 1008.8
20240722225810 29 293 4.8 9.7 0.00 1.07 1.07 69 1008.9
20240722225309 30 294 8.0 11.3 0.00 1.07 1.07 69 1008.9
20240722224808 30 266 6.4 11.3 0.00 1.07 1.07 68 1008.9
20240722224308 30 258 6.4 9.7 0.00 1.07 1.07 65 1008.7
20240722223807 31 283 8.0 11.3 0.00 1.07 1.07 63 1008.7
20240722223304 31 288 8.0 11.3 0.00 1.07 1.07 65 1008.9
20240722222804 31 345 3.2 4.8 0.00 1.07 1.07 65 1008.8
20240722222306 31 302 4.8 4.8 0.00 1.07 1.07 63 1008.7
20240722221800 30 297 4.8 8.0 0.00 1.07 1.07 65 1008.7
20240722221259 31 315 3.2 4.8 0.00 1.07 1.07 65 1008.8
20240722220759 31 263 6.4 9.7 0.00 1.07 1.07 65 1008.7
20240722220258 31 275 6.4 8.0 0.00 1.07 1.07 63 1008.5
20240722215758 31 294 6.4 12.9 0.00 1.07 1.07 64 1008.6
20240722215256 31 297 6.4 9.7 0.00 1.07 1.07 62 1008.6
20240722214754 31 327 3.2 4.8 0.00 1.07 1.07 64 1008.6
20240722214254 31 294 6.4 9.7 0.00 1.07 1.07 63 1008.8
20240722213750 30 283 8.0 9.7 0.00 1.07 1.07 62 1008.8
20240722213248 30 310 6.4 8.0 0.00 1.07 1.07 64 1008.9
20240722212746 30 269 4.8 9.7 0.00 1.07 1.07 63 1008.9
20240722212245 30 315 8.0 9.7 0.00 1.07 1.07 64 1008.8
20240722211743 30 295 8.0 11.3 0.00 1.07 1.07 62 1008.8
20240722211242 31 289 12.9 14.5 0.00 1.07 1.07 65 1008.8
20240722210739 31 280 8.0 11.3 0.00 1.07 1.07 63 1008.9
20240722210238 30 344 8.0 9.7 0.00 1.07 1.07 63 1008.9
20240722205738 30 283 12.9 14.5 0.00 1.07 1.07 63 1009.0
20240722205235 31 304 9.7 12.9 0.00 1.07 1.07 62 1009.1
20240722204735 31 281 9.7 16.1 0.00 1.07 1.07 61 1008.9
20240722204234 30 288 6.4 9.7 0.00 1.07 1.07 64 1009.1
20240722203731 30 281 8.0 11.3 0.00 1.07 1.07 62 1009.1
20240722203230 30 287 6.4 11.3 0.00 1.07 1.07 63 1009.1
20240722202725 30 341 4.8 11.3 0.00 1.07 1.07 64 1009.2
20240722202225 30 304 6.4 11.3 0.00 1.07 1.07 63 1009.2
20240722201723 30 277 9.7 16.1 0.00 1.07 1.07 64 1009.3
20240722201220 30 260 14.5 16.1 0.00 1.07 1.07 65 1009.3
20240722200719 30 269 9.7 12.9 0.00 1.07 1.07 64 1009.2
20240722200218 30 274 11.3 17.7 0.00 1.07 1.07 63 1009.6
20240722195717 30 275 8.0 12.9 0.00 1.07 1.07 67 1009.6
20240722195213 30 275 11.3 11.3 0.00 1.07 1.07 68 1009.8
20240722194711 30 273 9.7 22.5 0.00 1.07 1.07 67 1009.7
20240722194209 30 273 12.9 20.9 0.00 1.07 1.07 66 1009.6
20240722193706 30 305 4.8 8.0 0.00 1.07 1.07 65 1009.9
20240722193204 30 280 6.4 9.7 0.00 1.07 1.07 66 1009.8
20240722192703 30 315 3.2 8.0 0.00 1.07 1.07 63 1009.8
20240722192200 30 217 4.8 9.7 0.00 1.07 1.07 63 1010.1
20240722191658 30 301 4.8 9.7 0.00 1.07 1.07 64 1010.0
20240722191158 30 273 6.4 11.3 0.00 1.07 1.07 62 1010.2
20240722190653 30 272 8.0 12.9 0.00 1.07 1.07 62 1010.2
20240722190152 30 295 8.0 9.7 0.00 1.07 1.07 63 1010.3
20240722185651 30 290 6.4 9.7 0.00 1.07 1.07 66 1010.3
20240722185148 30 275 11.3 11.3 0.00 1.07 1.07 65 1010.2
20240722184647 30 286 6.4 9.7 0.00 1.07 1.07 63 1010.2
20240722184145 30 268 8.0 17.7 0.00 1.07 1.07 62 1010.5
20240722183643 30 253 8.0 9.7 0.00 1.07 1.07 61 1010.5
20240722183140 30 293 4.8 8.0 0.00 1.07 1.07 64 1010.5
20240722182640 30 291 4.8 8.0 0.00 1.07 1.07 64 1010.8
20240722182137 30 288 11.3 12.9 0.00 1.07 1.07 68 1010.7
20240722181635 30 266 6.4 11.3 0.00 1.07 1.07 67 1010.8
20240722181134 30 293 11.3 12.9 0.00 1.07 1.07 65 1011.0
20240722180630 30 275 8.0 12.9 0.00 1.07 1.07 64 1010.7
20240722180128 30 277 9.7 11.3 0.00 1.07 1.07 64 1010.9
20240722175625 29 300 6.4 8.0 0.00 1.07 1.07 66 1011.0
20240722175124 29 301 4.8 9.7 0.00 1.07 1.07 68 1011.0
20240722174623 29 301 8.0 12.9 0.00 1.07 1.07 67 1011.2
20240722174121 29 294 8.0 14.5 0.00 1.07 1.07 64 1011.1
20240722173620 29 279 11.3 12.9 0.00 1.07 1.07 69 1011.2
20240722173119 29 358 3.2 4.8 0.00 1.07 1.07 70 1011.1
20240722172616 28 356 3.2 8.0 0.00 1.07 1.07 72 1011.4
20240722172116 28 356 3.2 4.8 0.00 1.07 1.07 70 1011.1
20240722171613 28 273 8.0 12.9 0.00 1.07 1.07 70 1011.6
20240722171111 28 313 6.4 9.7 0.00 1.07 1.07 70 1011.5
20240722170607 28 286 8.0 11.3 0.00 1.07 1.07 69 1011.5
20240722170106 28 22 1.6 4.8 0.00 1.07 1.07 71 1011.7
20240722165600 28 299 4.8 4.8 0.00 1.07 1.07 71 1011.8
20240722165100 28 20 1.6 4.8 0.00 1.07 1.07 68 1011.8
20240722164559 28 25 1.6 4.8 0.00 1.07 1.07 70 1011.8
20240722164059 28 329 4.8 14.5 0.00 1.07 1.07 72 1011.8
20240722163558 28 279 9.7 11.3 0.00 1.07 1.07 72 1011.8
20240722163057 28 1 3.2 4.8 0.00 1.07 1.07 73 1011.6
20240722162556 28 303 4.8 9.7 0.00 1.07 1.07 72 1011.8
20240722162054 28 297 4.8 4.8 0.00 1.07 1.07 73 1011.9
20240722161553 28 281 8.0 9.7 0.00 1.07 1.07 72 1011.8
20240722161052 28 15 3.2 3.2 0.00 1.07 1.07 70 1011.9
20240722160550 28 277 8.0 14.5 0.00 1.07 1.07 72 1011.9
20240722160049 28 24 0.0 4.8 0.00 1.07 1.07 73 1012.0
20240722155549 27 58 1.6 4.8 0.00 1.07 1.07 73 1012.1
20240722155048 27 267 4.8 4.8 0.00 1.07 1.07 76 1012.0
20240722154546 27 300 4.8 11.3 0.00 1.07 1.07 75 1012.0
20240722154044 27 31 0.0 3.2 0.00 1.07 1.07 75 1012.0
20240722153541 27 58 1.6 1.6 0.00 1.07 1.07 77 1012.1
20240722153040 27 25 1.6 3.2 0.00 1.07 1.07 78 1012.1
20240722152539 27 25 1.6 3.2 0.00 1.07 1.07 78 1012.4
20240722152038 27 12 3.2 3.2 0.00 1.07 1.07 79 1012.1
20240722151536 27 307 4.8 8.0 0.00 1.07 1.07 80 1012.2
20240722151033 27 14 3.2 3.2 0.00 1.07 1.07 82 1012.0
20240722150529 26 4 1.6 3.2 0.00 1.07 1.07 82 1012.2
20240722150029 26 287 6.4 8.0 0.00 1.07 1.07 82 1012.0
20240722145526 26 0 3.2 9.7 0.00 1.07 1.07 83 1012.1
20240722145025 26 30 1.6 4.8 0.00 1.07 1.07 84 1011.8
20240722144523 26 32 0.0 3.2 0.00 1.07 1.07 83 1011.8
20240722144021 26 21 3.2 8.0 0.00 1.07 1.07 84 1011.9
20240722143517 26 331 4.8 4.8 0.00 1.07 1.07 84 1011.7
20240722143016 26 31 0.0 1.6 0.00 1.07 1.07 84 1011.8
20240722142516 26 328 4.8 8.0 0.00 1.07 1.07 83 1011.8
20240722142014 26 0 3.2 3.2 0.00 1.07 1.07 86 1011.6
20240722141513 26 302 4.8 8.0 0.00 1.07 1.07 85 1011.4
20240722141012 25 325 4.8 4.8 0.00 1.07 1.07 87 1011.7
20240722140509 25 21 1.6 3.2 0.00 1.07 1.07 87 1011.7
20240722140008 25 356 3.2 3.2 0.00 1.07 1.07 88 1011.7
20240722135505 25 328 4.8 4.8 0.00 1.07 1.07 90 1011.7
20240722135004 25 7 1.6 3.2 0.00 1.07 1.07 91 1011.6
20240722134503 25 19 3.2 4.8 0.00 1.07 1.07 91 1011.9
20240722134003 25 28 1.6 3.2 0.00 1.07 1.07 91 1011.7
20240722133500 25 23 1.6 3.2 0.00 1.07 1.07 92 1011.7
20240722132959 25 59 1.6 1.6 0.00 1.07 1.07 93 1011.6
20240722132458 24 57 0.0 1.6 0.00 1.07 1.07 93 1011.6
20240722131956 24 27 1.6 3.2 0.00 1.07 1.07 94 1011.7
20240722131453 23 20 1.6 1.6 0.00 1.07 1.07 95 1011.6
20240722130953 23 47 0.0 1.6 0.00 1.07 1.07 96 1011.6
20240722130452 23 23 1.6 1.6 0.00 1.07 1.07 97 1011.7
20240722125950 23 68 1.6 3.2 0.00 1.07 1.07 97 1011.8
20240722125446 23 18 1.6 1.6 0.00 1.07 1.07 98 1011.6
20240722124944 23 19 1.6 1.6 0.00 1.07 1.07 98 1011.7
20240722124441 23 36 0.0 1.6 0.00 1.07 1.07 98 1011.7
20240722123940 23 8 3.2 3.2 0.00 1.07 1.07 98 1011.6
20240722123438 23 12 3.2 4.8 0.00 1.07 1.07 98 1011.8
20240722122936 23 10 3.2 3.2 0.00 1.07 1.07 99 1011.8
20240722122435 23 29 0.0 3.2 0.00 1.07 1.07 99 1011.7
20240722121934 23 23 1.6 3.2 0.00 1.07 1.07 99 1011.6
20240722121431 23 21 1.6 3.2 0.00 1.07 1.07 99 1011.6
20240722120930 23 41 0.0 0.0 0.00 1.07 1.07 99 1011.4
20240722120429 23 44 0.0 0.0 0.00 1.07 1.07 99 1011.7
20240722115928 23 44 0.0 0.0 0.00 1.07 1.07 99 1011.3
20240722115426 23 44 0.0 0.0 0.00 1.07 1.07 99 1011.4
20240722114926 23 44 0.0 0.0 0.00 1.07 1.07 99 1011.5
20240722114425 23 44 0.0 0.0 0.00 1.07 1.07 99 1011.4
20240722113923 23 44 0.0 0.0 0.00 1.07 1.07 99 1011.3
20240722113419 23 46 0.0 0.0 0.00 1.07 1.07 99 1011.4
20240722112918 23 46 0.0 0.0 0.00 1.07 1.07 99 1011.1
20240722112418 23 45 0.0 0.0 0.00 1.07 1.07 99 1011.5
20240722111915 23 45 0.0 0.0 0.00 1.07 1.07 98 1011.3
20240722111412 23 45 0.0 0.0 0.00 1.07 1.07 98 1011.2
20240722110911 23 46 0.0 0.0 0.00 1.07 1.07 99 1011.4
20240722110408 23 46 0.0 0.0 0.00 1.07 1.07 98 1011.2
20240722105908 23 46 0.0 0.0 0.00 1.07 1.07 98 1011.4
20240722105406 23 45 0.0 0.0 0.00 1.07 1.07 98 1011.2
20240722104906 23 45 0.0 0.0 0.00 1.07 1.07 98 1011.1
20240722104404 23 45 0.0 0.0 0.00 1.07 1.07 98 1011.0
20240722103903 23 45 0.0 1.6 0.00 1.07 1.07 98 1011.3
20240722103400 22 45 0.0 0.0 0.00 1.07 1.07 98 1011.2
20240722102858 22 45 0.0 0.0 0.00 1.07 1.07 98 1011.2
20240722102355 23 45 0.0 0.0 0.00 1.07 1.07 98 1011.0
20240722101854 23 45 0.0 0.0 0.00 1.07 1.07 98 1011.2
20240722101352 23 45 0.0 0.0 0.00 1.07 1.07 98 1011.2
20240722100851 22 45 0.0 0.0 0.00 1.07 1.07 98 1010.9
20240722100349 22 45 0.0 0.0 0.00 1.07 1.07 98 1010.9
20240722095846 22 45 0.0 0.0 0.00 1.07 1.07 98 1010.7
20240722095345 22 45 0.0 0.0 0.00 1.07 1.07 98 1010.9
20240722094844 22 45 0.0 0.0 0.00 1.07 1.07 98 1010.9
20240722094342 22 45 0.0 0.0 0.00 1.07 1.07 98 1011.0
20240722093842 22 45 0.0 0.0 0.00 1.07 1.07 98 1010.7
20240722093339 22 45 0.0 0.0 0.00 1.07 1.07 98 1010.9
20240722092838 22 45 0.0 0.0 0.00 1.07 1.07 98 1010.6
20240722092336 22 45 0.0 0.0 0.00 1.07 1.07 98 1010.7
20240722091835 22 44 0.0 0.0 0.00 1.07 1.07 98 1010.6
20240722091335 22 44 0.0 0.0 0.00 1.07 1.07 98 1010.8
20240722090834 22 45 0.0 1.6 0.00 1.07 1.07 98 1010.5
20240722090333 22 44 0.0 0.0 0.00 1.07 1.07 98 1010.6
20240722085832 23 45 0.0 0.0 0.00 1.07 1.07 98 1010.5
20240722085330 23 44 0.0 0.0 0.00 1.07 1.07 98 1010.3
20240722084827 22 44 0.0 0.0 0.00 1.07 1.07 98 1010.5
20240722084326 22 44 0.0 0.0 0.00 1.07 1.07 98 1010.5
20240722083822 22 44 0.0 0.0 0.00 1.07 1.07 98 1010.5
20240722083321 22 44 0.0 0.0 0.00 1.07 1.07 98 1010.6
20240722082821 22 45 0.0 0.0 0.00 1.07 1.07 98 1010.4
20240722082318 22 44 0.0 0.0 0.00 1.07 1.07 98 1010.3
20240722081817 22 45 0.0 0.0 0.00 1.07 1.07 98 1010.5
20240722081317 22 44 0.0 0.0 0.00 1.07 1.07 98 1010.3
20240722080813 23 45 0.0 0.0 0.00 1.07 1.07 98 1010.2
20240722080309 23 44 0.0 0.0 0.00 1.07 1.07 98 1010.3
20240722075806 23 44 0.0 1.6 0.00 1.07 1.07 98 1010.1
20240722075307 22 44 0.0 1.6 0.00 1.07 1.07 98 1010.3
20240722074804 22 37 0.0 0.0 0.00 1.07 1.07 98 1010.3
20240722074303 23 37 0.0 0.0 0.00 1.07 1.07 98 1010.2
20240722073800 23 37 0.0 0.0 0.00 1.07 1.07 98 1010.4
20240722073259 23 37 0.0 0.0 0.00 1.07 1.07 98 1010.5
20240722072758 23 37 0.0 0.0 0.00 1.07 1.07 98 1010.4
20240722072256 23 37 0.0 0.0 0.00 1.07 1.07 97 1010.6
20240722071753 23 37 0.0 0.0 0.00 1.07 1.07 97 1010.6
20240722071251 23 37 0.0 0.0 0.00 1.07 1.07 97 1010.6
20240722070750 23 37 0.0 0.0 0.00 1.07 1.07 97 1010.7
20240722070250 23 37 0.0 0.0 0.00 1.07 1.07 97 1010.7
20240722065748 23 37 0.0 0.0 0.00 1.07 1.07 97 1010.6
20240722065246 23 36 0.0 1.6 0.00 1.07 1.07 97 1010.8
20240722064744 23 28 1.6 1.6 0.00 1.07 1.07 97 1010.6
20240722064243 23 30 1.6 1.6 0.00 1.07 1.07 97 1010.9